sensor_id;sensor_type;location;lat;lon;timestamp;temperature;humidity
22716;DHT22;11525;51.152;4.456;2023-09-18T00:00:48;21.10;99.90
22716;DHT22;11525;51.152;4.456;2023-09-18T00:03:16;21.00;99.90
22716;DHT22;11525;51.152;4.456;2023-09-18T00:05:43;20.90;99.90
22716;DHT22;11525;51.152;4.456;2023-09-18T00:08:09;21.00;99.90
22716;DHT22;11525;51.152;4.456;2023-09-18T00:10:35;20.90;99.90
22716;DHT22;11525;51.152;4.456;2023-09-18T00:13:00;20.90;99.90
22716;DHT22;11525;51.152;4.456;2023-09-18T00:15:26;20.90;99.90
22716;DHT22;11525;51.152;4.456;2023-09-18T00:17:52;20.90;99.90
22716;DHT22;11525;51.152;4.456;2023-09-18T00:20:18;20.90;99.90
22716;DHT22;11525;51.152;4.456;2023-09-18T00:22:45;20.80;99.90
22716;DHT22;11525;51.152;4.456;2023-09-18T00:25:11;20.80;99.90
22716;DHT22;11525;51.152;4.456;2023-09-18T00:27:37;20.80;99.90
22716;DHT22;11525;51.152;4.456;2023-09-18T00:30:04;20.90;99.90
22716;DHT22;11525;51.152;4.456;2023-09-18T00:32:30;20.90;99.90
22716;DHT22;11525;51.152;4.456;2023-09-18T00:34:56;20.80;99.90
22716;DHT22;11525;51.152;4.456;2023-09-18T00:37:21;20.90;99.90
22716;DHT22;11525;51.152;4.456;2023-09-18T00:39:47;20.90;99.90
22716;DHT22;11525;51.152;4.456;2023-09-18T00:42:14;20.60;99.90
22716;DHT22;11525;51.152;4.456;2023-09-18T00:44:41;20.70;99.90
22716;DHT22;11525;51.152;4.456;2023-09-18T00:47:11;20.70;99.90
22716;DHT22;11525;51.152;4.456;2023-09-18T00:49:39;20.80;99.90
22716;DHT22;11525;51.152;4.456;2023-09-18T00:52:06;20.90;99.90
22716;DHT22;11525;51.152;4.456;2023-09-18T00:54:33;20.70;99.90
22716;DHT22;11525;51.152;4.456;2023-09-18T00:57:00;20.60;99.90
22716;DHT22;11525;51.152;4.456;2023-09-18T00:59:26;20.50;99.90
22716;DHT22;11525;51.152;4.456;2023-09-18T01:01:52;20.50;99.90
22716;DHT22;11525;51.152;4.456;2023-09-18T01:04:19;20.40;99.90
22716;DHT22;11525;51.152;4.456;2023-09-18T01:06:45;20.40;99.90
22716;DHT22;11525;51.152;4.456;2023-09-18T01:09:11;20.50;99.90
22716;DHT22;11525;51.152;4.456;2023-09-18T01:12:15;20.60;99.90
22716;DHT22;11525;51.152;4.456;2023-09-18T01:14:42;20.70;99.90
22716;DHT22;11525;51.152;4.456;2023-09-18T01:17:10;20.80;99.90
22716;DHT22;11525;51.152;4.456;2023-09-18T01:22:09;20.80;99.90
22716;DHT22;11525;51.152;4.456;2023-09-18T01:24:36;20.90;99.90
22716;DHT22;11525;51.152;4.456;2023-09-18T01:27:08;21.00;99.90
22716;DHT22;11525;51.152;4.456;2023-09-18T01:29:34;21.10;99.90
22716;DHT22;11525;51.152;4.456;2023-09-18T01:31:59;21.10;99.90
22716;DHT22;11525;51.152;4.456;2023-09-18T01:34:28;21.10;99.90
22716;DHT22;11525;51.152;4.456;2023-09-18T01:36:57;21.00;99.90
22716;DHT22;11525;51.152;4.456;2023-09-18T01:39:24;21.00;99.90
22716;DHT22;11525;51.152;4.456;2023-09-18T01:41:52;21.00;99.90
22716;DHT22;11525;51.152;4.456;2023-09-18T01:44:18;21.10;99.90
22716;DHT22;11525;51.152;4.456;2023-09-18T01:46:44;21.10;99.90
22716;DHT22;11525;51.152;4.456;2023-09-18T01:49:10;21.20;99.90
22716;DHT22;11525;51.152;4.456;2023-09-18T01:51:36;21.20;99.90
22716;DHT22;11525;51.152;4.456;2023-09-18T01:54:02;21.20;99.90
22716;DHT22;11525;51.152;4.456;2023-09-18T01:56:28;21.20;99.90
22716;DHT22;11525;51.152;4.456;2023-09-18T01:58:57;21.30;99.90
22716;DHT22;11525;51.152;4.456;2023-09-18T02:01:22;21.30;99.90
22716;DHT22;11525;51.152;4.456;2023-09-18T02:03:48;21.30;99.90
22716;DHT22;11525;51.152;4.456;2023-09-18T02:06:14;21.20;99.90
22716;DHT22;11525;51.152;4.456;2023-09-18T02:08:39;21.20;99.90
22716;DHT22;11525;51.152;4.456;2023-09-18T02:11:05;21.10;99.90
22716;DHT22;11525;51.152;4.456;2023-09-18T02:13:31;21.10;99.90
22716;DHT22;11525;51.152;4.456;2023-09-18T02:15:56;21.10;99.90
22716;DHT22;11525;51.152;4.456;2023-09-18T02:18:22;21.10;99.90
22716;DHT22;11525;51.152;4.456;2023-09-18T02:20:48;21.10;99.90
22716;DHT22;11525;51.152;4.456;2023-09-18T02:23:17;21.00;99.90
22716;DHT22;11525;51.152;4.456;2023-09-18T02:25:44;21.00;99.90
22716;DHT22;11525;51.152;4.456;2023-09-18T02:28:09;20.90;99.90
22716;DHT22;11525;51.152;4.456;2023-09-18T02:30:35;20.90;99.90
22716;DHT22;11525;51.152;4.456;2023-09-18T02:33:01;20.90;99.90
22716;DHT22;11525;51.152;4.456;2023-09-18T02:35:30;20.80;99.90
22716;DHT22;11525;51.152;4.456;2023-09-18T02:37:56;20.90;99.90
22716;DHT22;11525;51.152;4.456;2023-09-18T02:40:21;20.90;99.90
22716;DHT22;11525;51.152;4.456;2023-09-18T02:42:47;20.80;99.90
22716;DHT22;11525;51.152;4.456;2023-09-18T02:45:12;20.70;99.90
22716;DHT22;11525;51.152;4.456;2023-09-18T02:47:38;20.70;99.90
22716;DHT22;11525;51.152;4.456;2023-09-18T02:50:07;20.80;99.90
22716;DHT22;11525;51.152;4.456;2023-09-18T02:52:32;20.80;99.90
22716;DHT22;11525;51.152;4.456;2023-09-18T02:54:58;20.60;99.90
22716;DHT22;11525;51.152;4.456;2023-09-18T02:57:24;20.60;99.90
22716;DHT22;11525;51.152;4.456;2023-09-18T02:59:49;20.50;99.90
22716;DHT22;11525;51.152;4.456;2023-09-18T03:02:15;20.60;99.90
22716;DHT22;11525;51.152;4.456;2023-09-18T03:04:40;20.60;99.90
22716;DHT22;11525;51.152;4.456;2023-09-18T03:07:06;20.60;99.90
22716;DHT22;11525;51.152;4.456;2023-09-18T03:09:32;20.50;99.90
22716;DHT22;11525;51.152;4.456;2023-09-18T03:11:57;20.50;99.90
22716;DHT22;11525;51.152;4.456;2023-09-18T03:14:23;20.60;99.90
22716;DHT22;11525;51.152;4.456;2023-09-18T03:16:49;20.60;99.90
22716;DHT22;11525;51.152;4.456;2023-09-18T03:19:15;20.60;99.90
22716;DHT22;11525;51.152;4.456;2023-09-18T03:21:41;20.70;99.90
22716;DHT22;11525;51.152;4.456;2023-09-18T03:24:07;20.70;99.90
22716;DHT22;11525;51.152;4.456;2023-09-18T03:26:33;20.70;99.90
22716;DHT22;11525;51.152;4.456;2023-09-18T03:28:58;20.70;99.90
22716;DHT22;11525;51.152;4.456;2023-09-18T03:31:24;20.70;99.90
22716;DHT22;11525;51.152;4.456;2023-09-18T03:33:49;20.60;99.90
22716;DHT22;11525;51.152;4.456;2023-09-18T03:36:15;20.70;99.90
22716;DHT22;11525;51.152;4.456;2023-09-18T03:38:41;20.70;99.90
22716;DHT22;11525;51.152;4.456;2023-09-18T03:41:07;20.70;99.90
22716;DHT22;11525;51.152;4.456;2023-09-18T03:43:33;20.70;99.90
22716;DHT22;11525;51.152;4.456;2023-09-18T03:46:06;20.70;99.90
22716;DHT22;11525;51.152;4.456;2023-09-18T03:48:32;20.70;99.90
22716;DHT22;11525;51.152;4.456;2023-09-18T03:51:06;20.80;99.90
22716;DHT22;11525;51.152;4.456;2023-09-18T03:53:35;20.80;99.90
22716;DHT22;11525;51.152;4.456;2023-09-18T03:56:01;20.70;99.90
22716;DHT22;11525;51.152;4.456;2023-09-18T03:58:27;20.70;99.90
22716;DHT22;11525;51.152;4.456;2023-09-18T04:00:53;20.60;99.90
22716;DHT22;11525;51.152;4.456;2023-09-18T04:03:19;20.60;99.90
22716;DHT22;11525;51.152;4.456;2023-09-18T04:05:44;20.60;99.90
22716;DHT22;11525;51.152;4.456;2023-09-18T04:08:10;20.50;99.90
22716;DHT22;11525;51.152;4.456;2023-09-18T04:10:36;20.60;99.90
22716;DHT22;11525;51.152;4.456;2023-09-18T04:13:02;20.50;99.90
22716;DHT22;11525;51.152;4.456;2023-09-18T04:15:28;20.50;99.90
22716;DHT22;11525;51.152;4.456;2023-09-18T04:17:56;20.40;99.90
22716;DHT22;11525;51.152;4.456;2023-09-18T04:20:21;20.40;99.90
22716;DHT22;11525;51.152;4.456;2023-09-18T04:23:20;20.30;99.90
22716;DHT22;11525;51.152;4.456;2023-09-18T04:25:47;20.40;99.90
22716;DHT22;11525;51.152;4.456;2023-09-18T04:28:17;20.40;99.90
22716;DHT22;11525;51.152;4.456;2023-09-18T04:30:44;20.50;99.90
22716;DHT22;11525;51.152;4.456;2023-09-18T04:33:09;20.50;99.90
22716;DHT22;11525;51.152;4.456;2023-09-18T04:35:36;20.50;99.90
22716;DHT22;11525;51.152;4.456;2023-09-18T04:38:03;20.50;99.90
22716;DHT22;11525;51.152;4.456;2023-09-18T04:40:28;20.50;99.90
22716;DHT22;11525;51.152;4.456;2023-09-18T04:42:58;20.50;99.90
22716;DHT22;11525;51.152;4.456;2023-09-18T04:45:24;20.50;99.90
22716;DHT22;11525;51.152;4.456;2023-09-18T04:47:51;20.50;99.90
22716;DHT22;11525;51.152;4.456;2023-09-18T04:50:17;20.50;99.90
22716;DHT22;11525;51.152;4.456;2023-09-18T04:52:42;20.50;99.90
22716;DHT22;11525;51.152;4.456;2023-09-18T04:55:09;20.50;99.90
22716;DHT22;11525;51.152;4.456;2023-09-18T04:57:35;20.40;99.90
22716;DHT22;11525;51.152;4.456;2023-09-18T05:00:01;20.40;99.90
22716;DHT22;11525;51.152;4.456;2023-09-18T05:02:27;20.30;99.90
22716;DHT22;11525;51.152;4.456;2023-09-18T05:04:56;20.30;99.90
22716;DHT22;11525;51.152;4.456;2023-09-18T05:07:21;20.40;99.90
22716;DHT22;11525;51.152;4.456;2023-09-18T05:09:47;20.40;99.90
22716;DHT22;11525;51.152;4.456;2023-09-18T05:12:13;20.30;99.90
22716;DHT22;11525;51.152;4.456;2023-09-18T05:14:41;20.30;99.90
22716;DHT22;11525;51.152;4.456;2023-09-18T05:17:10;20.20;99.90
22716;DHT22;11525;51.152;4.456;2023-09-18T05:19:39;20.30;99.90
22716;DHT22;11525;51.152;4.456;2023-09-18T05:22:04;20.20;99.90
22716;DHT22;11525;51.152;4.456;2023-09-18T05:24:30;20.10;99.90
22716;DHT22;11525;51.152;4.456;2023-09-18T05:26:56;20.30;99.90
22716;DHT22;11525;51.152;4.456;2023-09-18T05:29:21;20.20;99.90
22716;DHT22;11525;51.152;4.456;2023-09-18T05:31:47;20.20;99.90
22716;DHT22;11525;51.152;4.456;2023-09-18T05:34:12;20.20;99.90
22716;DHT22;11525;51.152;4.456;2023-09-18T05:36:39;20.20;99.90
22716;DHT22;11525;51.152;4.456;2023-09-18T05:39:05;20.10;99.90
22716;DHT22;11525;51.152;4.456;2023-09-18T05:41:33;20.00;99.90
22716;DHT22;11525;51.152;4.456;2023-09-18T05:43:58;19.90;99.90
22716;DHT22;11525;51.152;4.456;2023-09-18T05:46:24;19.80;99.90
22716;DHT22;11525;51.152;4.456;2023-09-18T05:48:50;19.90;99.90
22716;DHT22;11525;51.152;4.456;2023-09-18T05:51:16;19.90;99.90
22716;DHT22;11525;51.152;4.456;2023-09-18T05:53:41;19.80;99.90
22716;DHT22;11525;51.152;4.456;2023-09-18T05:56:07;19.80;99.90
22716;DHT22;11525;51.152;4.456;2023-09-18T05:58:34;19.90;99.90
22716;DHT22;11525;51.152;4.456;2023-09-18T06:01:01;19.80;99.90
22716;DHT22;11525;51.152;4.456;2023-09-18T06:03:27;19.70;99.90
22716;DHT22;11525;51.152;4.456;2023-09-18T06:05:56;19.70;99.90
22716;DHT22;11525;51.152;4.456;2023-09-18T06:08:21;19.70;99.90
22716;DHT22;11525;51.152;4.456;2023-09-18T06:10:48;19.70;99.90
22716;DHT22;11525;51.152;4.456;2023-09-18T06:13:13;19.80;99.90
22716;DHT22;11525;51.152;4.456;2023-09-18T06:15:39;19.80;99.90
22716;DHT22;11525;51.152;4.456;2023-09-18T06:18:05;19.90;99.90
22716;DHT22;11525;51.152;4.456;2023-09-18T06:20:32;19.90;99.90
22716;DHT22;11525;51.152;4.456;2023-09-18T06:22:57;19.80;99.90
22716;DHT22;11525;51.152;4.456;2023-09-18T06:25:23;19.80;99.90
22716;DHT22;11525;51.152;4.456;2023-09-18T06:27:49;20.00;99.90
22716;DHT22;11525;51.152;4.456;2023-09-18T06:30:15;19.90;99.90
22716;DHT22;11525;51.152;4.456;2023-09-18T06:32:41;19.90;99.90
22716;DHT22;11525;51.152;4.456;2023-09-18T06:35:07;20.10;99.90
22716;DHT22;11525;51.152;4.456;2023-09-18T06:37:33;20.10;99.90
22716;DHT22;11525;51.152;4.456;2023-09-18T06:39:59;20.20;99.90
22716;DHT22;11525;51.152;4.456;2023-09-18T06:42:25;20.20;99.90
22716;DHT22;11525;51.152;4.456;2023-09-18T06:44:50;20.20;99.90
22716;DHT22;11525;51.152;4.456;2023-09-18T06:47:16;20.20;99.90
22716;DHT22;11525;51.152;4.456;2023-09-18T06:49:42;20.20;99.90
22716;DHT22;11525;51.152;4.456;2023-09-18T06:52:09;20.20;99.90
22716;DHT22;11525;51.152;4.456;2023-09-18T06:54:34;20.30;99.90
22716;DHT22;11525;51.152;4.456;2023-09-18T06:57:01;20.30;99.90
22716;DHT22;11525;51.152;4.456;2023-09-18T06:59:28;20.30;99.90
22716;DHT22;11525;51.152;4.456;2023-09-18T07:01:55;20.30;99.90
22716;DHT22;11525;51.152;4.456;2023-09-18T07:04:21;20.20;99.90
22716;DHT22;11525;51.152;4.456;2023-09-18T07:06:47;20.30;99.90
22716;DHT22;11525;51.152;4.456;2023-09-18T07:09:12;20.30;99.90
22716;DHT22;11525;51.152;4.456;2023-09-18T07:11:39;20.30;99.90
22716;DHT22;11525;51.152;4.456;2023-09-18T07:14:04;20.40;99.90
22716;DHT22;11525;51.152;4.456;2023-09-18T07:16:31;20.50;99.90
22716;DHT22;11525;51.152;4.456;2023-09-18T07:18:57;20.60;99.90
22716;DHT22;11525;51.152;4.456;2023-09-18T07:21:22;20.60;99.90
22716;DHT22;11525;51.152;4.456;2023-09-18T07:23:48;20.60;99.90
22716;DHT22;11525;51.152;4.456;2023-09-18T07:26:14;20.50;99.90
22716;DHT22;11525;51.152;4.456;2023-09-18T07:28:39;20.50;99.90
22716;DHT22;11525;51.152;4.456;2023-09-18T07:31:07;20.50;99.90
22716;DHT22;11525;51.152;4.456;2023-09-18T07:33:34;20.60;99.90
22716;DHT22;11525;51.152;4.456;2023-09-18T07:36:00;20.40;99.90
22716;DHT22;11525;51.152;4.456;2023-09-18T07:38:26;20.50;99.90
22716;DHT22;11525;51.152;4.456;2023-09-18T07:40:52;20.50;99.90
22716;DHT22;11525;51.152;4.456;2023-09-18T07:43:18;20.50;99.90
22716;DHT22;11525;51.152;4.456;2023-09-18T07:45:43;20.70;99.90
22716;DHT22;11525;51.152;4.456;2023-09-18T07:48:09;20.90;99.90
22716;DHT22;11525;51.152;4.456;2023-09-18T07:50:35;21.20;99.90
22716;DHT22;11525;51.152;4.456;2023-09-18T07:53:01;21.40;99.90
22716;DHT22;11525;51.152;4.456;2023-09-18T07:55:27;21.60;99.90
22716;DHT22;11525;51.152;4.456;2023-09-18T07:57:53;21.70;99.90
22716;DHT22;11525;51.152;4.456;2023-09-18T08:00:19;22.00;99.90
22716;DHT22;11525;51.152;4.456;2023-09-18T08:02:48;22.20;99.90
22716;DHT22;11525;51.152;4.456;2023-09-18T08:05:18;22.40;99.90
22716;DHT22;11525;51.152;4.456;2023-09-18T08:07:44;22.30;99.90
22716;DHT22;11525;51.152;4.456;2023-09-18T08:10:11;22.40;99.90
22716;DHT22;11525;51.152;4.456;2023-09-18T08:12:38;22.40;99.90
22716;DHT22;11525;51.152;4.456;2023-09-18T08:15:04;22.20;99.90
22716;DHT22;11525;51.152;4.456;2023-09-18T08:17:30;22.20;99.90
22716;DHT22;11525;51.152;4.456;2023-09-18T08:19:56;22.20;99.90
22716;DHT22;11525;51.152;4.456;2023-09-18T08:22:23;22.20;99.90
22716;DHT22;11525;51.152;4.456;2023-09-18T08:24:49;22.00;99.90
22716;DHT22;11525;51.152;4.456;2023-09-18T08:27:18;22.10;99.90
22716;DHT22;11525;51.152;4.456;2023-09-18T08:29:44;22.10;99.90
22716;DHT22;11525;51.152;4.456;2023-09-18T08:32:10;22.20;99.90
22716;DHT22;11525;51.152;4.456;2023-09-18T08:34:36;21.90;99.90
22716;DHT22;11525;51.152;4.456;2023-09-18T08:37:04;21.90;99.90
22716;DHT22;11525;51.152;4.456;2023-09-18T08:39:30;22.00;99.90
22716;DHT22;11525;51.152;4.456;2023-09-18T08:42:05;22.30;99.90
22716;DHT22;11525;51.152;4.456;2023-09-18T08:44:32;22.50;99.90
22716;DHT22;11525;51.152;4.456;2023-09-18T08:46:59;22.50;99.90
22716;DHT22;11525;51.152;4.456;2023-09-18T08:49:25;22.60;99.90
22716;DHT22;11525;51.152;4.456;2023-09-18T08:51:54;22.80;99.90
22716;DHT22;11525;51.152;4.456;2023-09-18T08:54:21;22.90;99.90
22716;DHT22;11525;51.152;4.456;2023-09-18T08:56:49;22.90;99.90
22716;DHT22;11525;51.152;4.456;2023-09-18T08:59:15;23.30;99.90
22716;DHT22;11525;51.152;4.456;2023-09-18T09:01:41;23.40;99.90
22716;DHT22;11525;51.152;4.456;2023-09-18T09:04:07;23.20;99.90
22716;DHT22;11525;51.152;4.456;2023-09-18T09:06:33;23.10;99.90
22716;DHT22;11525;51.152;4.456;2023-09-18T09:08:58;22.80;99.90
22716;DHT22;11525;51.152;4.456;2023-09-18T09:11:24;22.50;99.90
22716;DHT22;11525;51.152;4.456;2023-09-18T09:14:10;22.00;99.90
22716;DHT22;11525;51.152;4.456;2023-09-18T09:16:39;22.00;99.90
22716;DHT22;11525;51.152;4.456;2023-09-18T09:19:05;21.90;99.90
22716;DHT22;11525;51.152;4.456;2023-09-18T09:21:41;21.60;99.90
22716;DHT22;11525;51.152;4.456;2023-09-18T09:24:09;21.50;99.90
22716;DHT22;11525;51.152;4.456;2023-09-18T09:26:37;21.50;99.90
22716;DHT22;11525;51.152;4.456;2023-09-18T09:29:17;21.50;99.90
22716;DHT22;11525;51.152;4.456;2023-09-18T09:31:44;21.50;99.90
22716;DHT22;11525;51.152;4.456;2023-09-18T09:34:10;21.30;99.90
22716;DHT22;11525;51.152;4.456;2023-09-18T09:36:36;21.30;99.90
22716;DHT22;11525;51.152;4.456;2023-09-18T09:39:02;21.40;99.90
22716;DHT22;11525;51.152;4.456;2023-09-18T09:41:31;21.30;99.90
22716;DHT22;11525;51.152;4.456;2023-09-18T09:43:57;21.40;99.90
22716;DHT22;11525;51.152;4.456;2023-09-18T09:46:23;21.30;99.90
22716;DHT22;11525;51.152;4.456;2023-09-18T09:49:03;21.40;99.90
22716;DHT22;11525;51.152;4.456;2023-09-18T09:51:31;21.30;99.90
22716;DHT22;11525;51.152;4.456;2023-09-18T09:53:57;21.30;99.90
22716;DHT22;11525;51.152;4.456;2023-09-18T09:56:46;21.30;99.90
22716;DHT22;11525;51.152;4.456;2023-09-18T09:59:13;21.40;99.90
22716;DHT22;11525;51.152;4.456;2023-09-18T10:01:40;21.50;99.90
22716;DHT22;11525;51.152;4.456;2023-09-18T10:04:12;21.40;99.90
22716;DHT22;11525;51.152;4.456;2023-09-18T10:06:41;21.40;99.90
22716;DHT22;11525;51.152;4.456;2023-09-18T10:09:08;21.40;99.90
22716;DHT22;11525;51.152;4.456;2023-09-18T10:11:41;21.50;99.90
22716;DHT22;11525;51.152;4.456;2023-09-18T10:14:19;21.60;99.90
22716;DHT22;11525;51.152;4.456;2023-09-18T10:16:49;21.80;99.90
22716;DHT22;11525;51.152;4.456;2023-09-18T10:19:40;22.00;99.90
22716;DHT22;11525;51.152;4.456;2023-09-18T10:22:21;22.30;99.90
22716;DHT22;11525;51.152;4.456;2023-09-18T10:24:55;22.40;99.90
22716;DHT22;11525;51.152;4.456;2023-09-18T10:27:26;22.80;99.90
22716;DHT22;11525;51.152;4.456;2023-09-18T10:29:54;22.90;99.90
22716;DHT22;11525;51.152;4.456;2023-09-18T10:32:20;22.80;99.90
22716;DHT22;11525;51.152;4.456;2023-09-18T10:34:48;22.80;99.90
22716;DHT22;11525;51.152;4.456;2023-09-18T10:37:15;22.70;99.90
22716;DHT22;11525;51.152;4.456;2023-09-18T10:39:41;22.60;99.90
22716;DHT22;11525;51.152;4.456;2023-09-18T10:42:09;22.20;99.90
22716;DHT22;11525;51.152;4.456;2023-09-18T10:44:35;21.90;99.90
22716;DHT22;11525;51.152;4.456;2023-09-18T10:47:03;21.90;99.90
22716;DHT22;11525;51.152;4.456;2023-09-18T10:49:34;21.80;99.90
22716;DHT22;11525;51.152;4.456;2023-09-18T10:52:01;21.60;99.90
22716;DHT22;11525;51.152;4.456;2023-09-18T10:54:29;21.70;99.90
22716;DHT22;11525;51.152;4.456;2023-09-18T10:56:56;21.90;99.90
22716;DHT22;11525;51.152;4.456;2023-09-18T10:59:23;22.10;99.90
22716;DHT22;11525;51.152;4.456;2023-09-18T11:01:49;22.20;99.90
22716;DHT22;11525;51.152;4.456;2023-09-18T11:04:19;22.70;99.90
22716;DHT22;11525;51.152;4.456;2023-09-18T11:09:25;23.10;99.90
22716;DHT22;11525;51.152;4.456;2023-09-18T11:12:02;23.40;99.90
22716;DHT22;11525;51.152;4.456;2023-09-18T11:22:55;23.60;99.90
22716;DHT22;11525;51.152;4.456;2023-09-18T11:25:34;23.40;99.90
22716;DHT22;11525;51.152;4.456;2023-09-18T11:28:01;23.50;99.90
22716;DHT22;11525;51.152;4.456;2023-09-18T11:30:28;23.40;99.90
22716;DHT22;11525;51.152;4.456;2023-09-18T11:32:55;23.40;99.90
22716;DHT22;11525;51.152;4.456;2023-09-18T11:35:24;23.30;99.90
22716;DHT22;11525;51.152;4.456;2023-09-18T11:38:08;23.40;99.90
22716;DHT22;11525;51.152;4.456;2023-09-18T11:40:35;23.40;99.90
22716;DHT22;11525;51.152;4.456;2023-09-18T11:45:49;23.40;99.90
22716;DHT22;11525;51.152;4.456;2023-09-18T11:48:17;23.50;99.90
22716;DHT22;11525;51.152;4.456;2023-09-18T11:50:44;23.70;99.90
22716;DHT22;11525;51.152;4.456;2023-09-18T11:53:11;23.80;99.90
22716;DHT22;11525;51.152;4.456;2023-09-18T11:55:39;24.00;99.90
22716;DHT22;11525;51.152;4.456;2023-09-18T11:58:06;23.90;99.90
22716;DHT22;11525;51.152;4.456;2023-09-18T12:00:37;23.90;99.90
22716;DHT22;11525;51.152;4.456;2023-09-18T12:03:16;23.70;99.90
22716;DHT22;11525;51.152;4.456;2023-09-18T12:05:44;23.80;99.90
22716;DHT22;11525;51.152;4.456;2023-09-18T12:08:11;23.70;99.90
22716;DHT22;11525;51.152;4.456;2023-09-18T12:10:37;23.60;99.90
22716;DHT22;11525;51.152;4.456;2023-09-18T12:13:06;23.60;99.90
22716;DHT22;11525;51.152;4.456;2023-09-18T12:15:33;23.50;99.90
22716;DHT22;11525;51.152;4.456;2023-09-18T12:18:10;23.40;99.90
22716;DHT22;11525;51.152;4.456;2023-09-18T12:20:47;23.50;99.90
22716;DHT22;11525;51.152;4.456;2023-09-18T12:23:13;23.60;99.90
22716;DHT22;11525;51.152;4.456;2023-09-18T12:25:39;23.80;99.90
22716;DHT22;11525;51.152;4.456;2023-09-18T12:28:07;23.60;99.90
22716;DHT22;11525;51.152;4.456;2023-09-18T12:30:33;23.80;99.90
22716;DHT22;11525;51.152;4.456;2023-09-18T12:32:59;24.00;99.90
22716;DHT22;11525;51.152;4.456;2023-09-18T12:35:26;24.00;99.90
22716;DHT22;11525;51.152;4.456;2023-09-18T12:37:58;23.60;99.90
22716;DHT22;11525;51.152;4.456;2023-09-18T12:40:27;23.70;99.90
22716;DHT22;11525;51.152;4.456;2023-09-18T12:42:56;23.70;99.90
22716;DHT22;11525;51.152;4.456;2023-09-18T12:45:26;23.80;99.90
22716;DHT22;11525;51.152;4.456;2023-09-18T12:47:55;23.90;99.90
22716;DHT22;11525;51.152;4.456;2023-09-18T12:50:22;23.90;99.90
22716;DHT22;11525;51.152;4.456;2023-09-18T12:52:47;23.80;99.90
22716;DHT22;11525;51.152;4.456;2023-09-18T12:55:23;23.90;99.90
22716;DHT22;11525;51.152;4.456;2023-09-18T12:57:50;23.90;99.90
22716;DHT22;11525;51.152;4.456;2023-09-18T13:00:20;23.90;99.90
22716;DHT22;11525;51.152;4.456;2023-09-18T13:02:49;24.20;99.90
22716;DHT22;11525;51.152;4.456;2023-09-18T13:05:20;24.20;99.90
22716;DHT22;11525;51.152;4.456;2023-09-18T13:07:47;24.40;99.90
22716;DHT22;11525;51.152;4.456;2023-09-18T13:10:16;24.30;99.90
22716;DHT22;11525;51.152;4.456;2023-09-18T13:12:49;24.20;99.90
22716;DHT22;11525;51.152;4.456;2023-09-18T13:15:32;24.20;99.90
22716;DHT22;11525;51.152;4.456;2023-09-18T13:18:00;24.20;99.90
22716;DHT22;11525;51.152;4.456;2023-09-18T13:20:29;24.20;99.90
22716;DHT22;11525;51.152;4.456;2023-09-18T13:22:57;24.00;99.90
22716;DHT22;11525;51.152;4.456;2023-09-18T13:25:27;24.10;99.90
22716;DHT22;11525;51.152;4.456;2023-09-18T13:27:53;24.10;99.90
22716;DHT22;11525;51.152;4.456;2023-09-18T13:30:20;24.10;99.90
22716;DHT22;11525;51.152;4.456;2023-09-18T13:32:48;24.10;99.90
22716;DHT22;11525;51.152;4.456;2023-09-18T13:35:18;24.10;99.90
22716;DHT22;11525;51.152;4.456;2023-09-18T13:37:44;24.20;99.90
22716;DHT22;11525;51.152;4.456;2023-09-18T13:40:11;24.30;99.90
22716;DHT22;11525;51.152;4.456;2023-09-18T13:42:38;24.30;99.90
22716;DHT22;11525;51.152;4.456;2023-09-18T13:45:05;24.40;99.90
22716;DHT22;11525;51.152;4.456;2023-09-18T13:47:34;24.30;99.90
22716;DHT22;11525;51.152;4.456;2023-09-18T13:50:02;24.40;99.90
22716;DHT22;11525;51.152;4.456;2023-09-18T13:52:29;24.60;99.90
22716;DHT22;11525;51.152;4.456;2023-09-18T13:54:55;24.70;99.90
22716;DHT22;11525;51.152;4.456;2023-09-18T13:57:21;24.70;99.90
22716;DHT22;11525;51.152;4.456;2023-09-18T13:59:49;24.60;99.90
22716;DHT22;11525;51.152;4.456;2023-09-18T14:02:15;24.70;99.90
22716;DHT22;11525;51.152;4.456;2023-09-18T14:04:41;24.60;99.90
22716;DHT22;11525;51.152;4.456;2023-09-18T14:07:08;24.60;99.90
22716;DHT22;11525;51.152;4.456;2023-09-18T14:09:35;24.60;99.90
22716;DHT22;11525;51.152;4.456;2023-09-18T14:12:01;24.60;99.90
22716;DHT22;11525;51.152;4.456;2023-09-18T14:14:28;24.50;99.90
22716;DHT22;11525;51.152;4.456;2023-09-18T14:16:54;24.30;99.90
22716;DHT22;11525;51.152;4.456;2023-09-18T14:19:20;24.30;99.90
22716;DHT22;11525;51.152;4.456;2023-09-18T14:21:46;24.20;99.90
22716;DHT22;11525;51.152;4.456;2023-09-18T14:24:12;23.90;99.90
22716;DHT22;11525;51.152;4.456;2023-09-18T14:26:37;23.70;99.90
22716;DHT22;11525;51.152;4.456;2023-09-18T14:29:10;22.80;99.90
22716;DHT22;11525;51.152;4.456;2023-09-18T14:31:37;21.50;99.90
22716;DHT22;11525;51.152;4.456;2023-09-18T14:34:03;20.40;99.90
22716;DHT22;11525;51.152;4.456;2023-09-18T14:36:31;20.10;99.90
22716;DHT22;11525;51.152;4.456;2023-09-18T14:38:59;19.70;99.90
22716;DHT22;11525;51.152;4.456;2023-09-18T14:41:26;19.30;99.90
22716;DHT22;11525;51.152;4.456;2023-09-18T14:43:52;19.20;99.90
22716;DHT22;11525;51.152;4.456;2023-09-18T14:46:17;19.30;99.90
22716;DHT22;11525;51.152;4.456;2023-09-18T14:48:43;19.30;99.90
22716;DHT22;11525;51.152;4.456;2023-09-18T14:51:09;19.50;99.90
22716;DHT22;11525;51.152;4.456;2023-09-18T14:53:35;19.60;99.90
22716;DHT22;11525;51.152;4.456;2023-09-18T14:56:00;19.60;99.90
22716;DHT22;11525;51.152;4.456;2023-09-18T14:58:26;19.50;99.90
22716;DHT22;11525;51.152;4.456;2023-09-18T15:00:53;19.50;99.90
22716;DHT22;11525;51.152;4.456;2023-09-18T15:03:19;19.40;99.90
22716;DHT22;11525;51.152;4.456;2023-09-18T15:05:44;19.20;99.90
22716;DHT22;11525;51.152;4.456;2023-09-18T15:08:10;19.40;99.90
22716;DHT22;11525;51.152;4.456;2023-09-18T15:10:37;19.60;99.90
22716;DHT22;11525;51.152;4.456;2023-09-18T15:13:02;19.70;99.90
22716;DHT22;11525;51.152;4.456;2023-09-18T15:15:28;19.80;99.90
22716;DHT22;11525;51.152;4.456;2023-09-18T15:17:54;19.60;99.90
22716;DHT22;11525;51.152;4.456;2023-09-18T15:20:20;19.70;99.90
22716;DHT22;11525;51.152;4.456;2023-09-18T15:22:49;19.80;99.90
22716;DHT22;11525;51.152;4.456;2023-09-18T15:25:15;19.90;99.90
22716;DHT22;11525;51.152;4.456;2023-09-18T15:27:42;20.00;99.90
22716;DHT22;11525;51.152;4.456;2023-09-18T15:30:08;20.20;99.90
22716;DHT22;11525;51.152;4.456;2023-09-18T15:32:54;20.40;99.90
22716;DHT22;11525;51.152;4.456;2023-09-18T15:35:22;20.70;99.90
22716;DHT22;11525;51.152;4.456;2023-09-18T15:37:49;20.90;99.90
22716;DHT22;11525;51.152;4.456;2023-09-18T15:40:15;21.10;99.90
22716;DHT22;11525;51.152;4.456;2023-09-18T15:42:43;21.20;99.90
22716;DHT22;11525;51.152;4.456;2023-09-18T15:45:10;21.10;99.90
22716;DHT22;11525;51.152;4.456;2023-09-18T15:47:40;20.90;99.90